sensor_id;sensor_type;location;lat;lon;timestamp;temperature;humidity
60495;DHT22;46342;49.046;11.920;2023-05-17T00:00:51;11.90;55.10
60495;DHT22;46342;49.046;11.920;2023-05-17T00:03:17;11.90;55.20
60495;DHT22;46342;49.046;11.920;2023-05-17T00:05:43;11.90;55.20
60495;DHT22;46342;49.046;11.920;2023-05-17T00:08:08;11.80;55.20
60495;DHT22;46342;49.046;11.920;2023-05-17T00:10:34;11.80;55.20
60495;DHT22;46342;49.046;11.920;2023-05-17T00:12:59;11.80;55.30
60495;DHT22;46342;49.046;11.920;2023-05-17T00:15:25;11.80;55.30
60495;DHT22;46342;49.046;11.920;2023-05-17T00:17:50;11.80;55.40
60495;DHT22;46342;49.046;11.920;2023-05-17T00:20:16;11.80;55.40
60495;DHT22;46342;49.046;11.920;2023-05-17T00:22:42;11.80;55.40
60495;DHT22;46342;49.046;11.920;2023-05-17T00:25:10;11.80;55.40
60495;DHT22;46342;49.046;11.920;2023-05-17T00:27:35;11.70;55.30
60495;DHT22;46342;49.046;11.920;2023-05-17T00:30:01;11.70;55.40
60495;DHT22;46342;49.046;11.920;2023-05-17T00:32:26;11.70;55.30
60495;DHT22;46342;49.046;11.920;2023-05-17T00:34:52;11.70;55.30
60495;DHT22;46342;49.046;11.920;2023-05-17T00:37:17;11.60;55.30
60495;DHT22;46342;49.046;11.920;2023-05-17T00:39:43;11.60;55.30
60495;DHT22;46342;49.046;11.920;2023-05-17T00:42:09;11.60;55.40
60495;DHT22;46342;49.046;11.920;2023-05-17T00:44:35;11.60;55.40
60495;DHT22;46342;49.046;11.920;2023-05-17T00:47:01;11.60;55.40
60495;DHT22;46342;49.046;11.920;2023-05-17T00:49:28;11.60;55.40
60495;DHT22;46342;49.046;11.920;2023-05-17T00:51:54;11.50;55.30
60495;DHT22;46342;49.046;11.920;2023-05-17T00:54:20;11.50;55.40
60495;DHT22;46342;49.046;11.920;2023-05-17T00:56:46;11.50;55.40
60495;DHT22;46342;49.046;11.920;2023-05-17T00:59:13;11.50;55.50
60495;DHT22;46342;49.046;11.920;2023-05-17T01:01:44;11.50;55.50
60495;DHT22;46342;49.046;11.920;2023-05-17T01:04:09;11.50;55.60
60495;DHT22;46342;49.046;11.920;2023-05-17T01:06:36;11.40;56.00
60495;DHT22;46342;49.046;11.920;2023-05-17T01:09:02;11.40;55.40
60495;DHT22;46342;49.046;11.920;2023-05-17T01:14:57;11.40;55.30
60495;DHT22;46342;49.046;11.920;2023-05-17T01:17:45;11.40;55.20
60495;DHT22;46342;49.046;11.920;2023-05-17T01:20:24;11.40;55.00
60495;DHT22;46342;49.046;11.920;2023-05-17T01:28:37;11.30;55.00
60495;DHT22;46342;49.046;11.920;2023-05-17T01:31:04;11.30;55.20
60495;DHT22;46342;49.046;11.920;2023-05-17T01:33:30;11.20;55.20
60495;DHT22;46342;49.046;11.920;2023-05-17T01:35:56;11.20;55.20
60495;DHT22;46342;49.046;11.920;2023-05-17T01:38:22;11.20;55.20
60495;DHT22;46342;49.046;11.920;2023-05-17T01:41:18;11.20;55.20
60495;DHT22;46342;49.046;11.920;2023-05-17T01:43:54;11.20;55.10
60495;DHT22;46342;49.046;11.920;2023-05-17T01:46:40;11.20;55.10
60495;DHT22;46342;49.046;11.920;2023-05-17T01:49:20;11.10;54.90
60495;DHT22;46342;49.046;11.920;2023-05-17T01:51:50;11.10;54.80
60495;DHT22;46342;49.046;11.920;2023-05-17T01:54:23;11.10;55.10
60495;DHT22;46342;49.046;11.920;2023-05-17T01:56:57;11.10;54.90
60495;DHT22;46342;49.046;11.920;2023-05-17T01:59:23;11.00;54.90
60495;DHT22;46342;49.046;11.920;2023-05-17T02:01:53;11.00;55.00
60495;DHT22;46342;49.046;11.920;2023-05-17T02:04:20;11.00;55.00
60495;DHT22;46342;49.046;11.920;2023-05-17T02:06:45;11.00;55.00
60495;DHT22;46342;49.046;11.920;2023-05-17T02:09:11;11.00;55.00
60495;DHT22;46342;49.046;11.920;2023-05-17T02:11:36;11.00;55.00
60495;DHT22;46342;49.046;11.920;2023-05-17T02:14:02;10.90;55.00
60495;DHT22;46342;49.046;11.920;2023-05-17T02:16:27;11.00;55.00
60495;DHT22;46342;49.046;11.920;2023-05-17T02:18:53;10.90;54.90
60495;DHT22;46342;49.046;11.920;2023-05-17T02:21:18;10.90;55.00
60495;DHT22;46342;49.046;11.920;2023-05-17T02:23:44;10.90;54.90
60495;DHT22;46342;49.046;11.920;2023-05-17T02:26:10;10.80;54.90
60495;DHT22;46342;49.046;11.920;2023-05-17T02:28:35;10.80;54.90
60495;DHT22;46342;49.046;11.920;2023-05-17T02:31:01;10.80;54.90
60495;DHT22;46342;49.046;11.920;2023-05-17T02:33:26;10.70;54.90
60495;DHT22;46342;49.046;11.920;2023-05-17T02:35:52;10.70;54.90
60495;DHT22;46342;49.046;11.920;2023-05-17T02:38:17;10.70;55.00
60495;DHT22;46342;49.046;11.920;2023-05-17T02:40:43;10.70;55.00
60495;DHT22;46342;49.046;11.920;2023-05-17T02:43:09;10.70;55.00
60495;DHT22;46342;49.046;11.920;2023-05-17T02:45:34;10.70;55.00
60495;DHT22;46342;49.046;11.920;2023-05-17T02:48:00;10.70;55.00
60495;DHT22;46342;49.046;11.920;2023-05-17T02:50:25;10.60;54.90
60495;DHT22;46342;49.046;11.920;2023-05-17T02:52:51;10.60;54.90
60495;DHT22;46342;49.046;11.920;2023-05-17T02:55:16;10.60;54.90
60495;DHT22;46342;49.046;11.920;2023-05-17T02:57:42;10.60;54.90
60495;DHT22;46342;49.046;11.920;2023-05-17T03:00:08;10.60;54.90
60495;DHT22;46342;49.046;11.920;2023-05-17T03:02:33;10.60;54.90
60495;DHT22;46342;49.046;11.920;2023-05-17T03:04:59;10.50;54.90
60495;DHT22;46342;49.046;11.920;2023-05-17T03:07:24;10.50;54.90
60495;DHT22;46342;49.046;11.920;2023-05-17T03:09:50;10.50;54.90
60495;DHT22;46342;49.046;11.920;2023-05-17T03:12:16;10.50;54.90
60495;DHT22;46342;49.046;11.920;2023-05-17T03:14:41;10.50;54.90
60495;DHT22;46342;49.046;11.920;2023-05-17T03:17:06;10.40;54.90
60495;DHT22;46342;49.046;11.920;2023-05-17T03:19:32;10.40;54.90
60495;DHT22;46342;49.046;11.920;2023-05-17T03:21:58;10.40;54.90
60495;DHT22;46342;49.046;11.920;2023-05-17T03:24:23;10.40;54.90
60495;DHT22;46342;49.046;11.920;2023-05-17T03:26:49;10.40;55.50
60495;DHT22;46342;49.046;11.920;2023-05-17T03:29:14;10.40;54.90
60495;DHT22;46342;49.046;11.920;2023-05-17T03:31:40;10.30;54.90
60495;DHT22;46342;49.046;11.920;2023-05-17T03:34:05;10.30;54.90
60495;DHT22;46342;49.046;11.920;2023-05-17T03:36:33;10.30;54.80
60495;DHT22;46342;49.046;11.920;2023-05-17T03:38:58;10.30;54.80
60495;DHT22;46342;49.046;11.920;2023-05-17T03:41:24;10.30;54.90
60495;DHT22;46342;49.046;11.920;2023-05-17T03:43:49;10.20;54.90
60495;DHT22;46342;49.046;11.920;2023-05-17T03:46:15;10.20;54.90
60495;DHT22;46342;49.046;11.920;2023-05-17T03:48:40;10.20;54.90
60495;DHT22;46342;49.046;11.920;2023-05-17T03:51:06;10.20;55.00
60495;DHT22;46342;49.046;11.920;2023-05-17T03:53:32;10.20;55.00
60495;DHT22;46342;49.046;11.920;2023-05-17T03:55:57;10.20;55.00
60495;DHT22;46342;49.046;11.920;2023-05-17T03:58:23;10.10;54.90
60495;DHT22;46342;49.046;11.920;2023-05-17T04:00:48;10.10;54.90
60495;DHT22;46342;49.046;11.920;2023-05-17T04:03:14;10.10;54.90
60495;DHT22;46342;49.046;11.920;2023-05-17T04:05:40;10.10;54.90
60495;DHT22;46342;49.046;11.920;2023-05-17T04:08:06;10.00;54.90
60495;DHT22;46342;49.046;11.920;2023-05-17T04:10:31;10.00;54.90
60495;DHT22;46342;49.046;11.920;2023-05-17T04:12:57;10.00;55.00
60495;DHT22;46342;49.046;11.920;2023-05-17T04:15:23;10.00;55.00
60495;DHT22;46342;49.046;11.920;2023-05-17T04:17:48;10.00;55.10
60495;DHT22;46342;49.046;11.920;2023-05-17T04:20:14;9.90;55.90
60495;DHT22;46342;49.046;11.920;2023-05-17T04:22:39;9.90;56.00
60495;DHT22;46342;49.046;11.920;2023-05-17T04:25:05;9.90;56.00
60495;DHT22;46342;49.046;11.920;2023-05-17T04:27:31;9.90;56.10
60495;DHT22;46342;49.046;11.920;2023-05-17T04:29:56;9.90;56.00
60495;DHT22;46342;49.046;11.920;2023-05-17T04:32:22;9.90;55.90
60495;DHT22;46342;49.046;11.920;2023-05-17T04:34:48;9.90;56.00
60495;DHT22;46342;49.046;11.920;2023-05-17T04:37:14;9.90;56.00
60495;DHT22;46342;49.046;11.920;2023-05-17T04:39:41;9.90;56.00
60495;DHT22;46342;49.046;11.920;2023-05-17T04:42:06;9.90;56.00
60495;DHT22;46342;49.046;11.920;2023-05-17T04:44:33;9.80;56.60
60495;DHT22;46342;49.046;11.920;2023-05-17T04:46:58;9.80;56.10
60495;DHT22;46342;49.046;11.920;2023-05-17T04:49:24;9.80;56.10
60495;DHT22;46342;49.046;11.920;2023-05-17T04:51:50;9.80;56.10
60495;DHT22;46342;49.046;11.920;2023-05-17T04:54:15;9.80;56.00
60495;DHT22;46342;49.046;11.920;2023-05-17T04:56:41;9.80;56.00
60495;DHT22;46342;49.046;11.920;2023-05-17T04:59:06;9.80;56.00
60495;DHT22;46342;49.046;11.920;2023-05-17T05:01:32;9.80;56.00
60495;DHT22;46342;49.046;11.920;2023-05-17T05:03:59;9.80;56.10
60495;DHT22;46342;49.046;11.920;2023-05-17T05:06:25;9.80;56.10
60495;DHT22;46342;49.046;11.920;2023-05-17T05:08:50;9.80;56.10
60495;DHT22;46342;49.046;11.920;2023-05-17T05:11:16;9.80;56.10
60495;DHT22;46342;49.046;11.920;2023-05-17T05:13:42;9.80;56.30
60495;DHT22;46342;49.046;11.920;2023-05-17T05:16:08;9.80;56.20
60495;DHT22;46342;49.046;11.920;2023-05-17T05:18:33;9.80;56.30
60495;DHT22;46342;49.046;11.920;2023-05-17T05:20:59;9.70;56.30
60495;DHT22;46342;49.046;11.920;2023-05-17T05:23:24;9.70;56.40
60495;DHT22;46342;49.046;11.920;2023-05-17T05:25:50;9.80;56.50
60495;DHT22;46342;49.046;11.920;2023-05-17T05:28:16;9.80;56.60
60495;DHT22;46342;49.046;11.920;2023-05-17T05:30:41;9.80;56.50
60495;DHT22;46342;49.046;11.920;2023-05-17T05:33:07;9.80;56.60
60495;DHT22;46342;49.046;11.920;2023-05-17T05:35:32;9.80;56.60
60495;DHT22;46342;49.046;11.920;2023-05-17T05:37:58;9.80;56.60
60495;DHT22;46342;49.046;11.920;2023-05-17T05:40:24;9.80;56.70
60495;DHT22;46342;49.046;11.920;2023-05-17T05:42:50;9.80;56.70
60495;DHT22;46342;49.046;11.920;2023-05-17T05:45:16;9.80;56.70
60495;DHT22;46342;49.046;11.920;2023-05-17T05:47:42;9.90;56.80
60495;DHT22;46342;49.046;11.920;2023-05-17T05:50:08;9.90;56.80
60495;DHT22;46342;49.046;11.920;2023-05-17T05:52:34;9.90;56.80
60495;DHT22;46342;49.046;11.920;2023-05-17T05:54:59;9.90;56.70
60495;DHT22;46342;49.046;11.920;2023-05-17T05:57:25;9.90;56.70
60495;DHT22;46342;49.046;11.920;2023-05-17T05:59:51;9.90;56.70
60495;DHT22;46342;49.046;11.920;2023-05-17T06:02:16;10.00;56.00
60495;DHT22;46342;49.046;11.920;2023-05-17T06:04:43;10.00;56.00
60495;DHT22;46342;49.046;11.920;2023-05-17T06:07:09;10.00;56.00
60495;DHT22;46342;49.046;11.920;2023-05-17T06:09:34;10.00;56.00
60495;DHT22;46342;49.046;11.920;2023-05-17T06:12:00;10.10;56.20
60495;DHT22;46342;49.046;11.920;2023-05-17T06:14:26;10.10;56.20
60495;DHT22;46342;49.046;11.920;2023-05-17T06:16:51;10.10;56.20
60495;DHT22;46342;49.046;11.920;2023-05-17T06:19:17;10.20;56.20
60495;DHT22;46342;49.046;11.920;2023-05-17T06:21:42;10.20;56.20
60495;DHT22;46342;49.046;11.920;2023-05-17T06:24:08;10.20;56.10
60495;DHT22;46342;49.046;11.920;2023-05-17T06:26:34;10.30;56.20
60495;DHT22;46342;49.046;11.920;2023-05-17T06:28:59;10.30;56.20
60495;DHT22;46342;49.046;11.920;2023-05-17T06:31:25;10.30;56.20
60495;DHT22;46342;49.046;11.920;2023-05-17T06:33:50;10.30;56.20
60495;DHT22;46342;49.046;11.920;2023-05-17T06:36:16;10.40;56.30
60495;DHT22;46342;49.046;11.920;2023-05-17T06:38:41;10.40;56.20
60495;DHT22;46342;49.046;11.920;2023-05-17T06:41:07;10.50;56.20
60495;DHT22;46342;49.046;11.920;2023-05-17T06:43:33;10.50;56.30
60495;DHT22;46342;49.046;11.920;2023-05-17T06:45:58;10.60;56.40
60495;DHT22;46342;49.046;11.920;2023-05-17T06:48:24;10.60;56.50
60495;DHT22;46342;49.046;11.920;2023-05-17T06:50:50;10.70;56.70
60495;DHT22;46342;49.046;11.920;2023-05-17T06:53:15;10.70;56.60
60495;DHT22;46342;49.046;11.920;2023-05-17T06:55:41;10.80;56.60
60495;DHT22;46342;49.046;11.920;2023-05-17T06:58:07;10.80;56.50
60495;DHT22;46342;49.046;11.920;2023-05-17T07:00:33;10.90;56.50
60495;DHT22;46342;49.046;11.920;2023-05-17T07:02:59;11.00;56.60
60495;DHT22;46342;49.046;11.920;2023-05-17T07:05:24;11.00;56.50
60495;DHT22;46342;49.046;11.920;2023-05-17T07:07:50;11.10;56.60
60495;DHT22;46342;49.046;11.920;2023-05-17T07:10:16;11.10;56.40
60495;DHT22;46342;49.046;11.920;2023-05-17T07:12:42;11.20;56.30
60495;DHT22;46342;49.046;11.920;2023-05-17T07:15:07;11.20;56.20
60495;DHT22;46342;49.046;11.920;2023-05-17T07:17:33;11.30;56.30
60495;DHT22;46342;49.046;11.920;2023-05-17T07:19:58;11.30;56.30
60495;DHT22;46342;49.046;11.920;2023-05-17T07:22:24;11.40;56.40
60495;DHT22;46342;49.046;11.920;2023-05-17T07:24:50;11.40;56.30
60495;DHT22;46342;49.046;11.920;2023-05-17T07:27:15;11.50;56.20
60495;DHT22;46342;49.046;11.920;2023-05-17T07:29:41;11.50;56.30
60495;DHT22;46342;49.046;11.920;2023-05-17T07:32:07;11.60;56.40
60495;DHT22;46342;49.046;11.920;2023-05-17T07:34:34;11.60;56.30
60495;DHT22;46342;49.046;11.920;2023-05-17T07:37:00;11.70;56.20
60495;DHT22;46342;49.046;11.920;2023-05-17T07:39:25;11.70;56.10
60495;DHT22;46342;49.046;11.920;2023-05-17T07:41:51;11.80;56.30
60495;DHT22;46342;49.046;11.920;2023-05-17T07:44:16;11.80;56.20
60495;DHT22;46342;49.046;11.920;2023-05-17T07:46:42;11.90;56.20
60495;DHT22;46342;49.046;11.920;2023-05-17T07:49:07;11.90;56.10
60495;DHT22;46342;49.046;11.920;2023-05-17T07:51:33;12.00;56.10
60495;DHT22;46342;49.046;11.920;2023-05-17T07:54:00;12.10;56.20
60495;DHT22;46342;49.046;11.920;2023-05-17T07:56:27;12.10;56.10
60495;DHT22;46342;49.046;11.920;2023-05-17T07:58:53;12.10;56.10
60495;DHT22;46342;49.046;11.920;2023-05-17T08:01:19;12.20;56.10
60495;DHT22;46342;49.046;11.920;2023-05-17T08:03:44;12.20;56.00
60495;DHT22;46342;49.046;11.920;2023-05-17T08:06:13;12.30;56.10
60495;DHT22;46342;49.046;11.920;2023-05-17T08:08:39;12.30;55.90
60495;DHT22;46342;49.046;11.920;2023-05-17T08:11:06;12.40;55.90
60495;DHT22;46342;49.046;11.920;2023-05-17T08:13:31;12.40;55.90
60495;DHT22;46342;49.046;11.920;2023-05-17T08:15:57;12.50;56.00
60495;DHT22;46342;49.046;11.920;2023-05-17T08:18:28;12.50;55.90
60495;DHT22;46342;49.046;11.920;2023-05-17T08:20:54;12.60;56.00
60495;DHT22;46342;49.046;11.920;2023-05-17T08:23:19;12.60;55.80
60495;DHT22;46342;49.046;11.920;2023-05-17T08:25:45;12.70;55.80
60495;DHT22;46342;49.046;11.920;2023-05-17T08:28:10;12.70;55.80
60495;DHT22;46342;49.046;11.920;2023-05-17T08:30:36;12.80;55.90
60495;DHT22;46342;49.046;11.920;2023-05-17T08:33:02;12.80;55.80
60495;DHT22;46342;49.046;11.920;2023-05-17T08:35:27;12.90;55.90
60495;DHT22;46342;49.046;11.920;2023-05-17T08:37:53;13.00;55.90
60495;DHT22;46342;49.046;11.920;2023-05-17T08:40:20;13.00;55.90
60495;DHT22;46342;49.046;11.920;2023-05-17T08:42:46;13.10;55.90
60495;DHT22;46342;49.046;11.920;2023-05-17T08:45:12;13.20;55.90
60495;DHT22;46342;49.046;11.920;2023-05-17T08:47:39;13.30;55.90
60495;DHT22;46342;49.046;11.920;2023-05-17T08:50:06;13.30;56.00
60495;DHT22;46342;49.046;11.920;2023-05-17T08:52:35;13.50;56.00
60495;DHT22;46342;49.046;11.920;2023-05-17T08:55:01;13.50;55.80
60495;DHT22;46342;49.046;11.920;2023-05-17T08:57:32;13.70;56.60
60495;DHT22;46342;49.046;11.920;2023-05-17T08:59:58;13.80;55.60
60495;DHT22;46342;49.046;11.920;2023-05-17T09:02:31;13.90;55.30
60495;DHT22;46342;49.046;11.920;2023-05-17T09:04:57;13.90;55.40
60495;DHT22;46342;49.046;11.920;2023-05-17T09:07:23;14.00;55.20
60495;DHT22;46342;49.046;11.920;2023-05-17T09:09:52;14.00;55.20
60495;DHT22;46342;49.046;11.920;2023-05-17T09:12:19;14.20;54.90
60495;DHT22;46342;49.046;11.920;2023-05-17T09:14:45;14.10;55.00
60495;DHT22;46342;49.046;11.920;2023-05-17T09:17:15;14.20;55.00
60495;DHT22;46342;49.046;11.920;2023-05-17T09:19:45;14.20;54.80
60495;DHT22;46342;49.046;11.920;2023-05-17T09:22:12;14.30;54.50
60495;DHT22;46342;49.046;11.920;2023-05-17T09:24:39;14.30;54.50
60495;DHT22;46342;49.046;11.920;2023-05-17T09:27:06;14.40;54.60
60495;DHT22;46342;49.046;11.920;2023-05-17T09:29:33;14.40;54.50
60495;DHT22;46342;49.046;11.920;2023-05-17T09:34:39;14.50;53.80
60495;DHT22;46342;49.046;11.920;2023-05-17T09:37:15;14.50;54.30
60495;DHT22;46342;49.046;11.920;2023-05-17T09:39:42;14.60;53.90
60495;DHT22;46342;49.046;11.920;2023-05-17T09:42:12;14.60;54.20
60495;DHT22;46342;49.046;11.920;2023-05-17T09:44:54;14.60;54.30
60495;DHT22;46342;49.046;11.920;2023-05-17T09:47:25;14.70;53.80
60495;DHT22;46342;49.046;11.920;2023-05-17T09:49:51;14.70;54.30
60495;DHT22;46342;49.046;11.920;2023-05-17T09:52:18;14.80;54.30
60495;DHT22;46342;49.046;11.920;2023-05-17T09:54:55;14.90;54.30
60495;DHT22;46342;49.046;11.920;2023-05-17T09:57:21;14.90;54.10
60495;DHT22;46342;49.046;11.920;2023-05-17T09:59:47;15.00;54.70
60495;DHT22;46342;49.046;11.920;2023-05-17T10:02:21;15.10;54.80
60495;DHT22;46342;49.046;11.920;2023-05-17T10:04:51;15.20;54.50
60495;DHT22;46342;49.046;11.920;2023-05-17T10:07:18;15.30;54.40
60495;DHT22;46342;49.046;11.920;2023-05-17T10:09:46;15.40;54.50
60495;DHT22;46342;49.046;11.920;2023-05-17T10:12:16;15.40;54.10
60495;DHT22;46342;49.046;11.920;2023-05-17T10:14:42;15.60;53.90
60495;DHT22;46342;49.046;11.920;2023-05-17T10:17:09;15.60;53.90
60495;DHT22;46342;49.046;11.920;2023-05-17T10:19:36;15.70;53.70
60495;DHT22;46342;49.046;11.920;2023-05-17T10:22:02;15.70;53.50
60495;DHT22;46342;49.046;11.920;2023-05-17T10:24:29;15.80;53.40
60495;DHT22;46342;49.046;11.920;2023-05-17T10:26:56;15.80;53.20
60495;DHT22;46342;49.046;11.920;2023-05-17T10:29:22;15.90;53.20
60495;DHT22;46342;49.046;11.920;2023-05-17T10:31:49;15.90;53.20
60495;DHT22;46342;49.046;11.920;2023-05-17T10:34:18;15.90;53.20
60495;DHT22;46342;49.046;11.920;2023-05-17T10:36:44;16.00;53.20
60495;DHT22;46342;49.046;11.920;2023-05-17T10:39:10;16.00;53.20
60495;DHT22;46342;49.046;11.920;2023-05-17T10:41:39;16.10;53.10
60495;DHT22;46342;49.046;11.920;2023-05-17T10:44:07;16.10;52.70
60495;DHT22;46342;49.046;11.920;2023-05-17T10:46:35;16.20;52.90
60495;DHT22;46342;49.046;11.920;2023-05-17T10:49:01;16.20;52.90
60495;DHT22;46342;49.046;11.920;2023-05-17T10:51:32;16.30;52.60
60495;DHT22;46342;49.046;11.920;2023-05-17T10:54:14;16.30;51.90
60495;DHT22;46342;49.046;11.920;2023-05-17T10:56:52;16.40;51.60
60495;DHT22;46342;49.046;11.920;2023-05-17T10:59:23;16.40;51.40
60495;DHT22;46342;49.046;11.920;2023-05-17T11:04:38;16.40;51.20
60495;DHT22;46342;49.046;11.920;2023-05-17T11:09:51;16.50;51.20
60495;DHT22;46342;49.046;11.920;2023-05-17T11:14:59;16.60;51.60
60495;DHT22;46342;49.046;11.920;2023-05-17T11:17:27;16.60;51.50
60495;DHT22;46342;49.046;11.920;2023-05-17T11:22:41;16.70;50.80
60495;DHT22;46342;49.046;11.920;2023-05-17T11:25:12;16.70;52.20
60495;DHT22;46342;49.046;11.920;2023-05-17T11:30:30;17.00;51.30
60495;DHT22;46342;49.046;11.920;2023-05-17T11:33:05;17.00;50.60
60495;DHT22;46342;49.046;11.920;2023-05-17T11:35:35;17.10;50.80
60495;DHT22;46342;49.046;11.920;2023-05-17T11:38:16;17.00;50.60
60495;DHT22;46342;49.046;11.920;2023-05-17T11:40:43;17.00;50.40
60495;DHT22;46342;49.046;11.920;2023-05-17T11:45:59;17.00;50.40
60495;DHT22;46342;49.046;11.920;2023-05-17T11:48:26;17.00;50.80
60495;DHT22;46342;49.046;11.920;2023-05-17T11:50:53;17.10;51.70
60495;DHT22;46342;49.046;11.920;2023-05-17T11:53:19;17.00;51.00
60495;DHT22;46342;49.046;11.920;2023-05-17T11:55:47;17.10;51.10
60495;DHT22;46342;49.046;11.920;2023-05-17T11:58:15;17.10;50.80
60495;DHT22;46342;49.046;11.920;2023-05-17T12:00:41;17.10;50.50
60495;DHT22;46342;49.046;11.920;2023-05-17T12:03:26;17.20;50.30
60495;DHT22;46342;49.046;11.920;2023-05-17T12:06:10;17.20;49.80
60495;DHT22;46342;49.046;11.920;2023-05-17T12:08:38;17.20;50.20
60495;DHT22;46342;49.046;11.920;2023-05-17T12:11:10;17.20;50.50
60495;DHT22;46342;49.046;11.920;2023-05-17T12:13:37;17.10;49.50
60495;DHT22;46342;49.046;11.920;2023-05-17T12:16:08;17.10;50.10
60495;DHT22;46342;49.046;11.920;2023-05-17T12:18:42;17.10;49.80
60495;DHT22;46342;49.046;11.920;2023-05-17T12:21:09;17.10;49.50
60495;DHT22;46342;49.046;11.920;2023-05-17T12:23:37;17.00;50.00
60495;DHT22;46342;49.046;11.920;2023-05-17T12:26:09;17.10;50.00
60495;DHT22;46342;49.046;11.920;2023-05-17T12:28:37;17.00;49.40
60495;DHT22;46342;49.046;11.920;2023-05-17T12:31:09;17.00;49.90
60495;DHT22;46342;49.046;11.920;2023-05-17T12:33:36;17.10;50.10
60495;DHT22;46342;49.046;11.920;2023-05-17T12:36:04;17.10;50.20
60495;DHT22;46342;49.046;11.920;2023-05-17T12:38:33;17.10;50.00
60495;DHT22;46342;49.046;11.920;2023-05-17T12:41:00;17.10;49.60
60495;DHT22;46342;49.046;11.920;2023-05-17T12:43:27;17.20;49.90
60495;DHT22;46342;49.046;11.920;2023-05-17T12:46:00;17.10;49.80
60495;DHT22;46342;49.046;11.920;2023-05-17T12:48:26;17.20;49.70
60495;DHT22;46342;49.046;11.920;2023-05-17T12:50:51;17.20;49.80
60495;DHT22;46342;49.046;11.920;2023-05-17T12:53:20;17.10;49.80
60495;DHT22;46342;49.046;11.920;2023-05-17T12:55:47;17.10;49.70
60495;DHT22;46342;49.046;11.920;2023-05-17T12:58:12;17.10;49.50
60495;DHT22;46342;49.046;11.920;2023-05-17T13:00:38;17.00;49.60
60495;DHT22;46342;49.046;11.920;2023-05-17T13:03:11;17.00;49.60
60495;DHT22;46342;49.046;11.920;2023-05-17T13:05:36;17.00;49.20
60495;DHT22;46342;49.046;11.920;2023-05-17T13:08:20;17.00;49.40
60495;DHT22;46342;49.046;11.920;2023-05-17T13:10:45;17.00;48.90
60495;DHT22;46342;49.046;11.920;2023-05-17T13:13:18;16.90;49.60
60495;DHT22;46342;49.046;11.920;2023-05-17T13:15:45;16.90;49.30
60495;DHT22;46342;49.046;11.920;2023-05-17T13:18:14;16.90;49.70
60495;DHT22;46342;49.046;11.920;2023-05-17T13:20:41;16.90;49.80
60495;DHT22;46342;49.046;11.920;2023-05-17T13:23:07;16.90;49.70
60495;DHT22;46342;49.046;11.920;2023-05-17T13:25:33;16.80;49.60
60495;DHT22;46342;49.046;11.920;2023-05-17T13:27:58;16.80;49.60
60495;DHT22;46342;49.046;11.920;2023-05-17T13:30:24;16.80;49.60
60495;DHT22;46342;49.046;11.920;2023-05-17T13:32:49;16.80;49.60
60495;DHT22;46342;49.046;11.920;2023-05-17T13:35:15;16.80;49.70
60495;DHT22;46342;49.046;11.920;2023-05-17T13:37:41;16.80;49.80
60495;DHT22;46342;49.046;11.920;2023-05-17T13:40:07;16.70;49.80
60495;DHT22;46342;49.046;11.920;2023-05-17T13:42:33;16.70;49.70
60495;DHT22;46342;49.046;11.920;2023-05-17T13:44:58;16.70;49.60
60495;DHT22;46342;49.046;11.920;2023-05-17T13:47:26;16.70;49.70
60495;DHT22;46342;49.046;11.920;2023-05-17T13:49:54;16.60;49.60
60495;DHT22;46342;49.046;11.920;2023-05-17T13:52:19;16.60;49.60
60495;DHT22;46342;49.046;11.920;2023-05-17T13:54:47;16.60;49.70
60495;DHT22;46342;49.046;11.920;2023-05-17T13:57:12;16.60;49.70
60495;DHT22;46342;49.046;11.920;2023-05-17T13:59:38;16.60;49.80
60495;DHT22;46342;49.046;11.920;2023-05-17T14:02:04;16.60;49.60
60495;DHT22;46342;49.046;11.920;2023-05-17T14:04:29;16.60;49.50
60495;DHT22;46342;49.046;11.920;2023-05-17T14:06:55;16.60;49.60
60495;DHT22;46342;49.046;11.920;2023-05-17T14:09:21;16.60;49.60
60495;DHT22;46342;49.046;11.920;2023-05-17T14:11:46;16.60;49.70
60495;DHT22;46342;49.046;11.920;2023-05-17T14:14:12;16.60;49.80
60495;DHT22;46342;49.046;11.920;2023-05-17T14:16:37;16.60;49.60
60495;DHT22;46342;49.046;11.920;2023-05-17T14:19:03;16.60;49.60
60495;DHT22;46342;49.046;11.920;2023-05-17T14:21:28;16.60;49.40
60495;DHT22;46342;49.046;11.920;2023-05-17T14:23:54;16.50;49.20
60495;DHT22;46342;49.046;11.920;2023-05-17T14:26:19;16.50;49.30
60495;DHT22;46342;49.046;11.920;2023-05-17T14:28:46;16.50;49.40
60495;DHT22;46342;49.046;11.920;2023-05-17T14:31:12;16.50;49.60
60495;DHT22;46342;49.046;11.920;2023-05-17T14:33:37;16.60;50.10
60495;DHT22;46342;49.046;11.920;2023-05-17T14:36:03;16.60;50.10
60495;DHT22;46342;49.046;11.920;2023-05-17T14:38:29;16.70;50.10
60495;DHT22;46342;49.046;11.920;2023-05-17T14:40:54;16.70;49.80
60495;DHT22;46342;49.046;11.920;2023-05-17T14:43:20;16.70;49.60
60495;DHT22;46342;49.046;11.920;2023-05-17T14:45:45;16.70;49.50
60495;DHT22;46342;49.046;11.920;2023-05-17T14:48:11;16.70;49.60
60495;DHT22;46342;49.046;11.920;2023-05-17T14:50:36;16.70;49.60
60495;DHT22;46342;49.046;11.920;2023-05-17T14:53:02;16.70;49.60
60495;DHT22;46342;49.046;11.920;2023-05-17T14:55:27;16.70;49.70
60495;DHT22;46342;49.046;11.920;2023-05-17T14:57:55;16.70;49.80
60495;DHT22;46342;49.046;11.920;2023-05-17T15:00:22;16.70;49.70
60495;DHT22;46342;49.046;11.920;2023-05-17T15:02:49;16.70;49.60
60495;DHT22;46342;49.046;11.920;2023-05-17T15:05:14;16.70;49.50
60495;DHT22;46342;49.046;11.920;2023-05-17T15:07:40;16.70;49.60
60495;DHT22;46342;49.046;11.920;2023-05-17T15:10:06;16.70;49.60
60495;DHT22;46342;49.046;11.920;2023-05-17T15:12:32;16.80;49.70
60495;DHT22;46342;49.046;11.920;2023-05-17T15:14:58;16.80;49.60
60495;DHT22;46342;49.046;11.920;2023-05-17T15:17:23;16.80;49.60
60495;DHT22;46342;49.046;11.920;2023-05-17T15:19:49;16.80;49.70
60495;DHT22;46342;49.046;11.920;2023-05-17T15:22:15;16.90;49.80
60495;DHT22;46342;49.046;11.920;2023-05-17T15:24:41;17.00;49.80
60495;DHT22;46342;49.046;11.920;2023-05-17T15:27:07;17.00;49.70
60495;DHT22;46342;49.046;11.920;2023-05-17T15:29:32;17.00;49.50
60495;DHT22;46342;49.046;11.920;2023-05-17T15:31:58;17.10;49.30
60495;DHT22;46342;49.046;11.920;2023-05-17T15:34:24;17.00;49.00
60495;DHT22;46342;49.046;11.920;2023-05-17T15:36:56;17.00;49.40
60495;DHT22;46342;49.046;11.920;2023-05-17T15:39:22;17.00;48.80
60495;DHT22;46342;49.046;11.920;2023-05-17T15:41:48;17.00;49.10
60495;DHT22;46342;49.046;11.920;2023-05-17T15:44:13;17.00;49.30